createdAt,value
2018-08-19T00:03:12.182Z,51.90
2018-08-19T00:08:15.810Z,52.30
2018-08-19T00:13:20.834Z,52.30
2018-08-19T00:18:24.743Z,53.20
2018-08-19T00:23:34.843Z,52.90
2018-08-19T00:28:41.073Z,52.60
2018-08-19T00:33:45.809Z,52.80
2018-08-19T00:38:49.535Z,52.90
2018-08-19T00:43:53.210Z,53.00
2018-08-19T00:48:57.690Z,53.20
2018-08-19T00:54:01.350Z,54.00
2018-08-19T00:59:05.410Z,54.20
2018-08-19T01:04:10.456Z,54.30
2018-08-19T01:09:14.241Z,54.60
2018-08-19T01:14:17.932Z,55.00
2018-08-19T01:19:22.563Z,54.70
2018-08-19T01:24:26.297Z,54.60
2018-08-19T01:29:36.123Z,54.60
2018-08-19T01:34:42.627Z,54.80
2018-08-19T01:39:47.098Z,54.60
2018-08-19T01:44:50.778Z,55.00
2018-08-19T01:49:54.641Z,55.10
2018-08-19T01:54:58.283Z,55.40
2018-08-19T02:00:02.471Z,55.60
2018-08-19T02:05:06.862Z,55.80
2018-08-19T02:10:10.589Z,56.00
2018-08-19T02:15:14.819Z,56.20
2018-08-19T02:20:19.292Z,56.30
2018-08-19T02:25:24.049Z,56.60
2018-08-19T02:30:27.710Z,57.00
2018-08-19T02:35:31.600Z,56.80
2018-08-19T02:40:35.588Z,56.90
2018-08-19T02:45:41.566Z,56.80
2018-08-19T02:50:45.686Z,57.00
2018-08-19T02:55:51.323Z,57.20
2018-08-19T03:00:55.049Z,57.60
2018-08-19T03:06:02.712Z,57.10
2018-08-19T03:11:06.991Z,57.60
2018-08-19T03:16:10.575Z,57.80
2018-08-19T03:21:14.883Z,57.70
2018-08-19T03:26:18.715Z,58.10
2018-08-19T03:31:22.567Z,58.40
2018-08-19T03:36:26.314Z,58.50
2018-08-19T03:41:30.432Z,58.90
2018-08-19T03:46:34.268Z,59.70
2018-08-19T03:51:37.929Z,59.20
2018-08-19T03:56:43.651Z,59.20
2018-08-19T04:01:47.583Z,59.10
2018-08-19T04:06:51.647Z,59.00
2018-08-19T04:12:06.252Z,58.90
2018-08-19T04:17:15.003Z,58.90
2018-08-19T04:22:18.964Z,58.90
2018-08-19T04:27:22.950Z,58.80
2018-08-19T04:32:30.365Z,59.20
2018-08-19T04:37:35.996Z,59.30
2018-08-19T04:42:39.573Z,59.40
2018-08-19T04:47:43.175Z,59.20
2018-08-19T04:52:46.851Z,59.20
2018-08-19T04:57:50.487Z,59.30
2018-08-19T05:02:54.088Z,59.50
2018-08-19T05:07:57.782Z,59.50
2018-08-19T05:13:01.391Z,59.40
2018-08-19T05:18:05.528Z,59.70
2018-08-19T05:23:11.311Z,59.80
2018-08-19T05:28:18.464Z,59.60
2018-08-19T05:33:22.135Z,59.20
2018-08-19T05:38:26.214Z,59.20
2018-08-19T05:43:30.487Z,59.10
2018-08-19T05:48:34.079Z,58.70
2018-08-19T05:53:42.403Z,58.90
2018-08-19T05:58:45.983Z,59.10
2018-08-19T06:03:49.596Z,59.00
2018-08-19T06:08:54.717Z,58.90
2018-08-19T06:13:58.446Z,58.80
2018-08-19T06:19:02.115Z,58.80
2018-08-19T06:24:05.964Z,58.30
2018-08-19T06:29:11.205Z,58.60
2018-08-19T06:34:14.834Z,58.30
2018-08-19T06:39:18.467Z,58.20
2018-08-19T06:44:22.117Z,58.60
2018-08-19T06:49:25.957Z,57.60
2018-08-19T06:54:29.618Z,56.60
2018-08-19T06:59:33.263Z,56.20
2018-08-19T07:04:42.909Z,56.40
2018-08-19T07:09:47.430Z,56.10
2018-08-19T07:14:51.673Z,55.60
2018-08-19T07:19:57.274Z,54.90
2018-08-19T07:25:03.055Z,54.80
2018-08-19T07:30:07.007Z,55.20
2018-08-19T07:35:12.572Z,55.70
2018-08-19T07:40:16.324Z,55.10
2018-08-19T07:45:20.585Z,55.10
2018-08-19T07:50:52.691Z,54.80
2018-08-19T07:56:00.230Z,54.10
2018-08-19T08:01:05.870Z,54.60
2018-08-19T08:06:11.587Z,53.90
2018-08-19T08:11:28.630Z,53.50
2018-08-19T08:16:39.084Z,53.00
2018-08-19T08:21:43.234Z,52.80
2018-08-19T08:26:58.134Z,51.20
2018-08-19T08:32:01.941Z,51.30
2018-08-19T08:37:06.860Z,50.50
2018-08-19T08:42:10.763Z,50.10
2018-08-19T08:47:14.415Z,48.50
2018-08-19T08:52:24.295Z,47.90
2018-08-19T08:57:28.155Z,47.20
2018-08-19T09:02:31.907Z,46.50
2018-08-19T09:07:36.207Z,46.60
2018-08-19T09:12:45.670Z,46.40
2018-08-19T09:17:49.367Z,45.90
2018-08-19T09:22:53.168Z,46.10
2018-08-19T09:27:57.174Z,45.60
2018-08-19T09:33:02.209Z,45.90
2018-08-19T09:43:33.842Z,44.50
2018-08-19T09:48:37.634Z,44.90
2018-08-19T09:53:41.340Z,43.70
2018-08-19T09:58:50.149Z,43.80
2018-08-19T10:03:53.867Z,43.70
2018-08-19T10:08:57.497Z,43.40
2018-08-19T10:14:03.811Z,42.40
2018-08-19T10:19:07.589Z,43.00
2018-08-19T10:24:25.444Z,42.20
2018-08-19T10:29:29.142Z,42.10
2018-08-19T10:34:36.943Z,42.60
2018-08-19T10:39:41.502Z,42.30
2018-08-19T10:44:46.610Z,42.50
2018-08-19T10:49:58.255Z,41.80
2018-08-19T10:55:02.328Z,41.70
2018-08-19T11:00:10.170Z,41.10
2018-08-19T11:05:14.219Z,41.20
2018-08-19T11:10:34.174Z,40.40
2018-08-19T11:15:55.471Z,40.20
2018-08-19T11:21:02.779Z,40.10
2018-08-19T11:26:07.235Z,40.50
2018-08-19T11:31:23.043Z,40.10
2018-08-19T11:36:33.080Z,40.40
2018-08-19T11:41:36.737Z,39.70
2018-08-19T11:46:41.376Z,39.10
2018-08-19T11:51:51.679Z,38.40
2018-08-19T11:57:01.813Z,37.10
2018-08-19T12:02:10.902Z,36.90
2018-08-19T12:07:30.331Z,36.80
2018-08-19T12:12:46.340Z,36.90
2018-08-19T12:17:50.303Z,37.20
2018-08-19T12:22:54.316Z,36.70
2018-08-19T12:27:58.061Z,36.20
2018-08-19T12:33:13.233Z,35.90
2018-08-19T12:38:17.640Z,35.90
2018-08-19T12:43:24.546Z,35.50
2018-08-19T12:48:28.520Z,36.50
2018-08-19T12:53:33.472Z,36.50
2018-08-19T12:58:39.269Z,35.00
2018-08-19T13:03:43.587Z,36.50
2018-08-19T13:08:47.556Z,35.60
2018-08-19T13:13:51.434Z,36.10
2018-08-19T13:18:55.194Z,36.20
2018-08-19T13:23:59.121Z,35.00
2018-08-19T13:29:03.068Z,35.50
2018-08-19T13:34:07.004Z,34.70
2018-08-19T13:39:10.768Z,34.30
2018-08-19T13:44:14.495Z,33.30
2018-08-19T13:49:23.809Z,33.30
2018-08-19T13:54:28.107Z,33.20
2018-08-19T13:59:32.764Z,33.90
2018-08-19T14:04:36.964Z,34.20
2018-08-19T14:09:41.062Z,34.30
2018-08-19T14:14:45.659Z,33.90
2018-08-19T14:19:49.402Z,32.60
2018-08-19T14:24:53.528Z,32.60
2018-08-19T14:29:57.523Z,32.00
2018-08-19T14:35:03.031Z,32.30
2018-08-19T14:40:08.551Z,31.10
2018-08-19T14:45:12.405Z,31.30
2018-08-19T14:50:18.325Z,30.20
2018-08-19T14:55:22.199Z,29.30
2018-08-19T15:00:26.045Z,29.70
2018-08-19T15:05:29.864Z,29.80
2018-08-19T15:10:34.953Z,30.50
2018-08-19T15:16:00.661Z,29.30
2018-08-19T15:26:33.944Z,29.30
2018-08-19T15:31:38.037Z,28.40
2018-08-19T15:36:47.837Z,28.80
2018-08-19T15:41:51.645Z,29.70
2018-08-19T15:47:11.666Z,29.70
2018-08-19T15:52:24.248Z,29.60
2018-08-19T15:57:32.464Z,29.00
2018-08-19T16:02:37.267Z,29.40
2018-08-19T16:07:41.306Z,29.00
2018-08-19T16:12:51.897Z,29.20
2018-08-19T16:18:00.138Z,29.30
2018-08-19T16:23:05.433Z,29.20
2018-08-19T16:28:09.708Z,29.30
2018-08-19T16:33:14.329Z,29.80
2018-08-19T16:38:18.597Z,30.10
2018-08-19T16:43:33.084Z,29.60
2018-08-19T16:48:36.966Z,30.20
2018-08-19T16:53:40.705Z,30.10
2018-08-19T16:58:44.559Z,29.70
2018-08-19T17:03:48.486Z,29.90
2018-08-19T17:08:53.358Z,29.50
2018-08-19T17:13:57.343Z,30.10
2018-08-19T17:19:01.095Z,31.10
2018-08-19T17:24:04.985Z,31.20
2018-08-19T17:29:14.384Z,31.60
2018-08-19T17:34:20.598Z,31.90
2018-08-19T17:39:25.049Z,31.60
2018-08-19T17:44:28.828Z,32.20
2018-08-19T17:49:32.735Z,33.40
2018-08-19T17:54:38.219Z,33.80
2018-08-19T17:59:42.240Z,34.10
2018-08-19T18:04:46.426Z,34.20
2018-08-19T18:09:56.657Z,34.70
2018-08-19T18:15:01.379Z,35.30
2018-08-19T18:20:39.150Z,35.90
2018-08-19T18:25:45.809Z,36.30
2018-08-19T18:30:54.206Z,37.30
2018-08-19T18:35:58.931Z,38.20
2018-08-19T18:41:04.894Z,38.50
2018-08-19T18:46:09.095Z,38.70
2018-08-19T18:51:14.598Z,38.90
2018-08-19T18:56:18.740Z,39.00
2018-08-19T19:01:22.522Z,39.20
2018-08-19T19:06:26.467Z,39.70
2018-08-19T19:11:31.450Z,39.60
2018-08-19T19:16:38.095Z,39.40
2018-08-19T19:21:43.176Z,39.50
2018-08-19T19:26:47.240Z,40.00
2018-08-19T19:31:53.488Z,39.70
2018-08-19T19:36:57.647Z,39.80
2018-08-19T19:42:09.326Z,39.70
2018-08-19T19:47:13.038Z,39.70
2018-08-19T19:52:16.860Z,40.00
2018-08-19T19:57:20.890Z,40.70
2018-08-19T20:02:30.388Z,41.30
2018-08-19T20:07:34.883Z,41.80
2018-08-19T20:12:39.371Z,42.10
2018-08-19T20:17:43.475Z,42.30
2018-08-19T20:22:47.603Z,42.40
2018-08-19T20:27:56.091Z,42.40
2018-08-19T20:33:00.066Z,42.60
2018-08-19T20:38:03.876Z,42.80
2018-08-19T20:43:15.534Z,43.20
2018-08-19T20:48:20.842Z,43.10
2018-08-19T20:53:24.713Z,43.60
2018-08-19T20:58:28.438Z,44.20
2018-08-19T21:03:32.235Z,44.50
2018-08-19T21:08:35.938Z,44.60
2018-08-19T21:13:39.623Z,44.50
2018-08-19T21:18:43.238Z,44.00
2018-08-19T21:23:46.882Z,42.60
2018-08-19T21:28:56.290Z,43.40
2018-08-19T21:34:00.338Z,45.20
2018-08-19T21:39:31.414Z,44.80
2018-08-19T21:45:04.836Z,45.10
2018-08-19T21:50:09.585Z,43.20
2018-08-19T21:55:13.291Z,43.00
2018-08-19T22:00:17.216Z,44.90
2018-08-19T22:05:21.297Z,44.80
2018-08-19T22:10:25.595Z,43.40
2018-08-19T22:15:32.942Z,44.20
2018-08-19T22:20:37.805Z,45.10
2018-08-19T22:25:42.401Z,45.20
2018-08-19T22:30:46.334Z,46.40
2018-08-19T22:35:51.454Z,44.80
2018-08-19T22:40:55.100Z,45.10
2018-08-19T22:45:58.730Z,44.90
2018-08-19T22:51:02.424Z,44.80
2018-08-19T22:56:07.485Z,45.00
2018-08-19T23:01:11.310Z,45.00
2018-08-19T23:06:15.396Z,44.50
2018-08-19T23:11:19.032Z,44.60
2018-08-19T23:16:23.288Z,45.30
2018-08-19T23:21:27.572Z,46.00
2018-08-19T23:26:31.406Z,45.10
2018-08-19T23:31:35.068Z,46.20
2018-08-19T23:36:40.275Z,47.00
2018-08-19T23:41:44.447Z,47.40
2018-08-19T23:46:48.055Z,47.80
2018-08-19T23:51:51.702Z,47.80
2018-08-19T23:56:55.538Z,47.50
